Time;durP1;ratioP1;P1;durP2;ratioP2;P2;SDS_P1;SDS_P2;PMS_P1;PMS_P2;Temp;Humidity;BMP_temperature;BMP_pressure;BME280_temperature;BME280_humidity;BME280_pressure;Samples;Min_cycle;Max_cycle;Signal;HPM_P1;HPM_P2
2023/07/05 00:01:00;;;;;;;20.75;18.48;;;537.60;2406.40;;;;;;5092819;28;20038;-59
2023/07/05 00:03:27;;;;;;;23.02;18.83;;;512.90;2073.60;;;;;;5093274;28;20024;-59
2023/07/05 00:05:53;;;;;;;23.05;19.60;;;537.60;2406.40;;;;;;5092768;28;20020;-60
2023/07/05 00:08:18;;;;;;;24.85;18.08;;;537.60;2406.40;;;;;;5092915;28;20074;-60
2023/07/05 00:10:44;;;;;;;20.25;17.05;;;537.70;2406.40;;;;;;5093165;28;20028;-60
2023/07/05 00:13:10;;;;;;;21.13;17.98;;;537.80;2406.40;;;;;;5093386;28;20028;-60
2023/07/05 00:15:36;;;;;;;23.58;17.35;;;537.80;2406.40;;;;;;5093325;28;20438;-59
2023/07/05 00:18:03;;;;;;;23.17;16.35;;;537.80;2406.40;;;;;;5093316;28;20404;-60
2023/07/05 00:20:29;;;;;;;24.15;18.70;;;537.80;2406.40;;;;;;5092708;28;20032;-65
2023/07/05 00:22:55;;;;;;;19.45;17.38;;;537.80;2406.40;;;;;;5093148;28;20028;-59
2023/07/05 00:25:21;;;;;;;20.55;17.60;;;537.80;2406.40;;;;;;5092718;28;20024;-61
2023/07/05 00:27:48;;;;;;;24.38;19.40;;;537.70;2406.40;;;;;;5092932;28;20077;-60
2023/07/05 00:30:13;;;;;;;23.75;18.70;;;537.60;2406.40;;;;;;5092629;28;20016;-63
2023/07/05 00:32:39;;;;;;;22.60;18.45;;;512.90;2380.80;;;;;;5093389;28;20114;-59
2023/07/05 00:35:05;;;;;;;24.23;17.95;;;512.90;2380.80;;;;;;5092815;28;20351;-60
2023/07/05 00:37:31;;;;;;;20.30;18.02;;;537.60;2406.40;;;;;;5092427;28;20032;-60
2023/07/05 00:39:57;;;;;;;21.98;18.52;;;537.60;2406.40;;;;;;5092143;28;20082;-59
2023/07/05 00:42:22;;;;;;;21.95;17.92;;;537.60;2406.40;;;;;;5092566;28;20023;-61
2023/07/05 00:45:08;;;;;;;20.35;18.00;;;512.90;2380.80;;;;;;5091951;28;20024;-60
2023/07/05 00:47:35;;;;;;;24.08;17.63;;;512.90;2380.80;;;;;;5092199;28;20469;-60
2023/07/05 00:50:14;;;;;;;21.13;17.95;;;537.60;2406.40;;;;;;5092196;28;20024;-60
2023/07/05 00:52:40;;;;;;;19.15;17.10;;;537.60;2406.40;;;;;;5091770;28;20031;-60
2023/07/05 00:55:06;;;;;;;22.42;18.15;;;537.60;2406.40;;;;;;5092297;28;20063;-60
2023/07/05 00:57:36;;;;;;;22.73;18.30;;;512.90;2380.80;;;;;;5092124;28;20362;-61
2023/07/05 01:00:12;;;;;;;23.73;18.67;;;512.80;2380.80;;;;;;5083332;28;20047;-63
2023/07/05 01:02:40;;;;;;;27.50;19.85;;;512.80;2380.80;;;;;;5091632;28;20023;-63
2023/07/05 01:05:11;;;;;;;27.33;19.23;;;512.90;2380.80;;;;;;5092211;28;20542;-60
2023/07/05 01:07:37;;;;;;;22.40;17.45;;;512.90;2380.80;;;;;;5092144;28;20076;-60
2023/07/05 01:10:04;;;;;;;22.83;19.00;;;512.90;2380.80;;;;;;5091319;28;20113;-61
2023/07/05 01:13:05;;;;;;;20.45;17.52;;;512.70;2380.80;;;;;;5092146;28;20556;-62
2023/07/05 01:15:47;;;;;;;22.73;18.25;;;512.70;2380.80;;;;;;5091214;28;20043;-59
2023/07/05 01:18:17;;;;;;;22.65;17.35;;;512.70;2380.80;;;;;;5092192;28;20107;-60
2023/07/05 01:21:01;;;;;;;24.27;18.98;;;512.70;2380.80;;;;;;5065438;28;20059;-61
2023/07/05 01:24:05;;;;;;;27.70;18.02;;;512.70;2380.80;;;;;;5091997;28;20423;-61
2023/07/05 01:26:31;;;;;;;24.73;17.45;;;;;;;;;;5009262;28;20503;-61
2023/07/05 01:29:30;;;;;;;20.73;17.98;;;512.80;2380.80;;;;;;5009310;28;20034;-61
2023/07/05 01:32:06;;;;;;;34.55;17.70;;;512.70;2380.80;;;;;;5009476;28;20030;-61
2023/07/05 01:34:38;;;;;;;19.58;17.27;;;;;;;;;;5009205;28;20044;-60
2023/07/05 01:37:05;;;;;;;20.50;17.40;;;;;;;;;;5009528;28;20073;-61
2023/07/05 01:39:31;;;;;;;27.27;18.05;;;;;;;;;;5008218;28;20057;-61
2023/07/05 01:41:57;;;;;;;21.63;17.08;;;;;;;;;;5008972;28;20053;-61
2023/07/05 01:44:23;;;;;;;24.48;17.23;;;;;;;;;;4996066;28;20113;-65
2023/07/05 01:47:01;;;;;;;26.90;18.92;;;;;;;;;;5008990;28;20096;-61
2023/07/05 01:49:37;;;;;;;27.95;18.35;;;;;;;;;;5008809;28;20038;-60
2023/07/05 01:52:17;;;;;;;22.98;18.40;;;;;;;;;;5008941;28;20392;-61
2023/07/05 01:54:47;;;;;;;24.70;18.25;;;;;;;;;;5009150;28;20116;-60
2023/07/05 01:57:20;;;;;;;23.75;19.00;;;;;;;;;;5009119;28;20030;-61
2023/07/05 01:59:55;;;;;;;24.27;19.35;;;;;;;;;;5009084;28;20046;-61
2023/07/05 02:02:24;;;;;;;23.05;18.38;;;;;;;;;;5017487;28;20037;-60
2023/07/05 02:04:51;;;;;;;25.85;17.95;;;;;;;;;;5090921;28;20129;-61
2023/07/05 02:07:17;;;;;;;21.52;18.42;;;;;;;;;;5090704;28;20028;-61
2023/07/05 02:09:44;;;;;;;21.63;18.02;;;;;;;;;;5091182;28;20077;-60
2023/07/05 02:12:10;;;;;;;22.15;17.13;;;;;;;;;;5090925;28;20024;-61
2023/07/05 02:14:37;;;;;;;22.90;18.42;;;;;;;;;;5091281;28;20032;-64
2023/07/05 02:17:03;;;;;;;22.83;17.52;;;;;;;;;;5091017;28;20099;-60
2023/07/05 02:19:29;;;;;;;23.17;18.88;;;;;;;;;;5090351;28;20110;-61
2023/07/05 02:21:55;;;;;;;21.20;17.10;;;;;;;;;;5090736;28;20016;-61
2023/07/05 02:24:21;;;;;;;25.50;17.83;;;;;;;;;;5080420;28;20028;-61
2023/07/05 02:26:47;;;;;;;21.17;17.65;;;;;;;;;;5087351;28;20355;-61
2023/07/05 02:29:13;;;;;;;26.63;19.02;;;;;;;;;;5091014;28;20115;-61
2023/07/05 02:31:39;;;;;;;20.45;17.70;;;;;;;;;;5078513;28;20021;-62
2023/07/05 02:34:05;;;;;;;21.48;17.58;;;;;;;;;;5081672;28;20050;-61
2023/07/05 02:36:31;;;;;;;21.95;18.65;;;;;;;;;;5089753;28;20020;-61
2023/07/05 02:38:58;;;;;;;22.05;17.58;;;;;;;;;;5090049;28;20040;-61
2023/07/05 02:41:24;;;;;;;20.08;17.92;;;;;;;;;;5089908;28;20028;-61
2023/07/05 02:43:50;;;;;;;22.50;16.88;;;;;;;;;;5090205;28;20093;-61
2023/07/05 02:46:16;;;;;;;20.40;16.02;;;;;;;;;;5089884;28;20028;-61
2023/07/05 02:48:42;;;;;;;28.88;18.05;;;;;;;;;;5090152;28;20032;-61
2023/07/05 02:51:08;;;;;;;23.10;18.25;;;;;;;;;;5090001;28;20024;-62
2023/07/05 02:53:34;;;;;;;20.25;17.02;;;;;;;;;;5090607;28;20052;-60
2023/07/05 02:56:00;;;;;;;21.45;17.55;;;;;;;;;;5090033;28;20378;-60
2023/07/05 02:58:26;;;;;;;24.63;17.88;;;;;;;;;;5090197;28;20020;-61
2023/07/05 03:00:52;;;;;;;21.67;17.58;;;;;;;;;;5089391;28;20036;-61
2023/07/05 03:03:20;;;;;;;24.55;19.17;;;;;;;;;;5078981;28;20484;-61
2023/07/05 03:05:54;;;;;;;22.27;17.05;;;;;;;;;;5087528;28;20359;-62
2023/07/05 03:08:20;;;;;;;23.48;18.08;;;;;;;;;;5089715;28;20028;-61
2023/07/05 03:10:46;;;;;;;26.02;19.55;;;;;;;;;;5090062;28;20351;-61
2023/07/05 03:13:12;;;;;;;21.80;17.52;;;;;;;;;;5089596;28;20478;-60
2023/07/05 03:15:38;;;;;;;23.95;19.55;;;;;;;;;;5089364;28;20016;-60
2023/07/05 03:18:04;;;;;;;22.38;19.15;;;;;;;;;;5089577;28;20031;-63
2023/07/05 03:20:30;;;;;;;20.92;18.13;;;;;;;;;;5089418;28;20553;-61
2023/07/05 03:22:56;;;;;;;24.48;17.58;;;;;;;;;;5089076;28;20380;-61
2023/07/05 03:25:22;;;;;;;21.58;16.48;;;;;;;;;;5089634;28;20031;-61
2023/07/05 03:27:48;;;;;;;23.27;18.35;;;;;;;;;;5089408;28;20019;-62
2023/07/05 03:30:15;;;;;;;22.75;17.92;;;;;;;;;;5089506;28;20028;-61
2023/07/05 03:32:43;;;;;;;25.60;17.77;;;;;;;;;;5082842;28;20028;-68
2023/07/05 03:35:09;;;;;;;19.83;17.42;;;;;;;;;;5089032;28;20039;-61
2023/07/05 03:37:35;;;;;;;21.10;15.82;;;;;;;;;;5089090;28;20562;-62
2023/07/05 03:40:02;;;;;;;27.50;16.88;;;;;;;;;;5074960;28;20508;-64
2023/07/05 03:42:28;;;;;;;22.27;17.35;;;;;;;;;;5089316;28;20030;-61
2023/07/05 03:44:54;;;;;;;24.33;17.50;;;;;;;;;;5089373;28;20020;-61
2023/07/05 03:47:20;;;;;;;25.15;17.88;;;;;;;;;;5089540;28;20020;-61
2023/07/05 03:49:46;;;;;;;21.67;17.65;;;;;;;;;;5089188;28;20016;-61
2023/07/05 03:52:13;;;;;;;19.38;16.45;;;;;;;;;;5089214;28;20028;-58
2023/07/05 03:54:39;;;;;;;18.30;16.40;;;;;;;;;;5088976;28;20012;-62
2023/07/05 03:57:05;;;;;;;21.27;17.08;;;;;;;;;;5089179;28;20109;-61
2023/07/05 03:59:31;;;;;;;19.90;16.90;;;;;;;;;;5088837;28;20048;-61
2023/07/05 04:01:57;;;;;;;22.73;15.23;;;;;;;;;;5088881;28;20470;-60
2023/07/05 04:04:23;;;;;;;19.48;16.00;;;;;;;;;;5088504;28;20093;-63
2023/07/05 04:06:49;;;;;;;18.85;16.02;;;;;;;;;;5088525;28;20390;-62
2023/07/05 04:09:15;;;;;;;19.38;16.38;;;;;;;;;;5087348;28;20474;-60
2023/07/05 04:11:41;;;;;;;18.50;14.77;;;;;;;;;;5089006;28;20024;-61
2023/07/05 04:14:07;;;;;;;16.67;14.38;;;;;;;;;;5088721;28;20028;-62
2023/07/05 04:16:33;;;;;;;23.13;15.65;;;;;;;;;;5088754;28;20020;-61
2023/07/05 04:18:59;;;;;;;22.20;16.05;;;;;;;;;;5088590;28;20028;-61
2023/07/05 04:21:26;;;;;;;19.00;15.63;;;;;;;;;;5088598;28;20040;-60
2023/07/05 04:23:52;;;;;;;17.10;14.73;;;;;;;;;;5088787;28;20032;-59
2023/07/05 04:26:20;;;;;;;18.80;16.50;;;;;;;;;;5087015;28;20024;-61
2023/07/05 04:28:46;;;;;;;22.58;16.77;;;;;;;;;;5075627;28;20028;-60
2023/07/05 04:31:15;;;;;;;21.48;16.55;;;;;;;;;;5088132;28;20536;-62
2023/07/05 04:33:41;;;;;;;18.60;16.63;;;;;;;;;;5088601;28;20470;-62
2023/07/05 04:36:07;;;;;;;19.42;16.77;;;;;;;;;;5078078;28;20493;-60
2023/07/05 04:38:33;;;;;;;17.65;15.85;;;;;;;;;;5088226;28;20047;-62
2023/07/05 04:41:00;;;;;;;19.35;15.48;;;717.70;2432.00;;;;;;5088701;28;20040;-62
2023/07/05 04:43:27;;;;;;;18.25;14.73;;;743.20;2380.80;;;;;;5063014;28;20028;-62
2023/07/05 04:45:54;;;;;;;16.67;14.45;;;793.80;2227.20;;;;;;5084773;28;20025;-62
2023/07/05 04:48:22;;;;;;;21.73;14.80;;;819.60;2073.60;;;;;;5085974;28;20370;-60
2023/07/05 04:50:52;;;;;;;21.38;14.55;;;845.00;1996.80;;;;;;5090090;28;20033;-61
2023/07/05 04:53:25;;;;;;;14.38;12.77;;;845.60;1894.40;;;;;;5092648;28;20036;-59
2023/07/05 04:55:52;;;;;;;;;;;870.80;1868.80;;;;;;5092010;28;20039;-61
2023/07/05 04:58:19;;;;;;;16.20;14.20;;;896.10;1792.00;;;;;;5092051;28;19953;-59
2023/07/05 05:00:46;;;;;;;15.88;14.27;;;921.70;1740.80;;;;;;5091532;28;20499;-59
2023/07/05 05:03:13;;;;;;;16.58;14.90;;;922.00;1715.20;;;;;;5092030;28;20024;-59
2023/07/05 05:05:39;;;;;;;15.50;14.00;;;922.50;1664.00;;;;;;5089035;28;20012;-65
2023/07/05 05:08:05;;;;;;;17.05;14.57;;;947.20;1638.40;;;;;;5081211;28;20032;-58
2023/07/05 05:10:31;;;;;;;16.90;15.23;;;;;;;;;;5091997;28;20028;-60
2023/07/05 05:12:57;;;;;;;14.75;13.38;;;947.80;1587.20;;;;;;5092009;28;20024;-60
2023/07/05 05:15:22;;;;;;;19.05;15.15;;;948.10;1587.20;;;;;;5091514;28;20028;-60
2023/07/05 05:17:49;;;;;;;16.48;14.45;;;972.90;1587.20;;;;;;5091746;28;20111;-60
2023/07/05 05:20:14;;;;;;;16.83;14.80;;;973.70;1536.00;;;;;;5091087;28;20036;-60
2023/07/05 05:22:40;;;;;;;14.75;13.25;;;;;;;;;;5091564;28;20099;-59
2023/07/05 05:25:06;;;;;;;17.45;15.77;;;998.90;1510.40;;;;;;5092119;28;20032;-60
2023/07/05 05:27:32;;;;;;;18.80;14.60;;;1024.50;1433.60;;;;;;5091766;28;20024;-59
2023/07/05 05:29:57;;;;;;;18.77;15.82;;;1024.70;1433.60;;;;;;5091428;28;20497;-60
2023/07/05 05:32:23;;;;;;;16.35;14.95;;;1050.10;1408.00;;;;;;5091794;28;20028;-61
2023/07/05 05:34:49;;;;;;;16.20;14.80;;;1075.40;1382.40;;;;;;5091026;28;20024;-60
2023/07/05 05:37:14;;;;;;;17.45;15.63;;;1075.40;1382.40;;;;;;5091497;28;20630;-59
2023/07/05 05:39:40;;;;;;;17.45;15.88;;;1075.90;1356.80;;;;;;5090991;28;20056;-60
2023/07/05 05:42:06;;;;;;;18.20;15.95;;;1101.20;1331.20;;;;;;5091886;28;20016;-59
2023/07/05 05:44:31;;;;;;;17.17;15.57;;;1101.50;1305.60;;;;;;5090823;28;20378;-59
2023/07/05 05:46:57;;;;;;;17.05;15.55;;;1126.40;1305.60;;;;;;5091261;28;20016;-60
2023/07/05 05:49:23;;;;;;;17.98;16.38;;;1126.90;1280.00;;;;;;5088861;28;20028;-61
2023/07/05 05:51:48;;;;;;;17.92;16.15;;;1127.30;1280.00;;;;;;5079836;28;20099;-62
2023/07/05 05:54:14;;;;;;;17.33;15.93;;;1152.40;1228.80;;;;;;5089008;28;20023;-61
2023/07/05 05:56:40;;;;;;;19.38;17.58;;;1177.60;1203.20;;;;;;5070631;28;20016;-62
2023/07/05 05:59:05;;;;;;;19.45;17.58;;;1177.80;1177.60;;;;;;5087288;28;20048;-62
2023/07/05 06:01:32;;;;;;;19.55;17.88;;;1178.20;1177.60;;;;;;5091128;28;20034;-61
2023/07/05 06:03:58;;;;;;;19.35;17.65;;;1178.00;1177.60;;;;;;5090695;28;20510;-61
2023/07/05 06:06:23;;;;;;;18.88;17.38;;;1203.20;1177.60;;;;;;5091264;28;20032;-62
2023/07/05 06:08:49;;;;;;;20.02;18.27;;;1203.70;1152.00;;;;;;5090626;28;20484;-62
2023/07/05 06:11:15;;;;;;;17.60;16.13;;;1203.60;1152.00;;;;;;5090791;28;20028;-65
2023/07/05 06:13:40;;;;;;;18.73;17.13;;;1203.80;1126.40;;;;;;5090743;28;20086;-62
2023/07/05 06:16:06;;;;;;;18.17;16.70;;;1203.80;1152.00;;;;;;5090836;28;20020;-61
2023/07/05 06:18:31;;;;;;;19.25;17.60;;;1228.90;1152.00;;;;;;5090189;28;20070;-62
2023/07/05 06:20:57;;;;;;;19.50;17.70;;;1229.00;1126.40;;;;;;5090550;28;20028;-61
2023/07/05 06:23:23;;;;;;;20.63;18.83;;;1229.00;1126.40;;;;;;5090407;28;20041;-60
2023/07/05 06:25:49;;;;;;;18.70;17.25;;;1229.40;1100.80;;;;;;5090337;28;20393;-59
2023/07/05 06:28:17;;;;;;;18.27;16.67;;;1229.00;1126.40;;;;;;5090312;28;20105;-61
2023/07/05 06:30:44;;;;;;;18.13;16.38;;;1229.40;1100.80;;;;;;5090116;28;20035;-61
2023/07/05 06:33:10;;;;;;;15.45;14.05;;;1229.50;1075.20;;;;;;5090261;28;20113;-61
2023/07/05 06:35:36;;;;;;;17.00;15.32;;;1228.80;1126.40;;;;;;5090600;28;20024;-61
2023/07/05 06:38:02;;;;;;;13.82;12.77;;;1203.20;1126.40;;;;;;5076356;28;20051;-61
2023/07/05 06:40:28;;;;;;;15.35;13.80;;;1203.40;1100.80;;;;;;5090347;28;20529;-60
2023/07/05 06:42:54;;;;;;;16.95;15.55;;;1228.90;1100.80;;;;;;5090105;28;20723;-61
2023/07/05 06:45:20;;;;;;;16.58;15.18;;;1254.40;1100.80;;;;;;5090160;28;20107;-61
2023/07/05 06:47:46;;;;;;;15.27;13.98;;;1254.60;1075.20;;;;;;5090039;28;20051;-62
2023/07/05 06:50:12;;;;;;;14.15;12.98;;;1254.40;1075.20;;;;;;5078691;28;20016;-62
2023/07/05 06:52:39;;;;;;;13.15;12.15;;;1254.60;1049.60;;;;;;5088250;28;20020;-61
2023/07/05 06:55:05;;;;;;;14.00;12.68;;;;;;;;;;5089540;28;20370;-60
2023/07/05 06:57:31;;;;;;;15.32;14.00;;;1203.80;1049.60;;;;;;5089777;28;20024;-62
2023/07/05 06:59:57;;;;;;;15.93;14.50;;;1203.40;1075.20;;;;;;5089775;28;20024;-63
2023/07/05 07:02:22;;;;;;;14.00;12.82;;;1229.50;1049.60;;;;;;5089614;28;20024;-61
2023/07/05 07:04:48;;;;;;;15.13;14.02;;;1254.90;1049.60;;;;;;5089837;28;20024;-61
2023/07/05 07:07:14;;;;;;;13.88;12.82;;;1280.00;1024.00;;;;;;5088224;28;20031;-63
2023/07/05 07:09:40;;;;;;;16.55;15.13;;;1255.10;1024.00;;;;;;5088906;28;20034;-63
2023/07/05 07:12:07;;;;;;;20.50;18.52;;;1280.40;1024.00;;;;;;5089718;28;20020;-61
2023/07/05 07:14:33;;;;;;;16.90;15.65;;;1280.40;1024.00;;;;;;5089402;28;20099;-62
2023/07/05 07:16:59;;;;;;;17.33;15.90;;;1280.50;998.40;;;;;;5087748;28;20028;-62
2023/07/05 07:19:25;;;;;;;18.40;17.00;;;1280.40;998.40;;;;;;5089101;28;20547;-61
2023/07/05 07:21:51;;;;;;;21.45;19.55;;;1280.70;998.40;;;;;;5089641;28;20053;-61
2023/07/05 07:24:17;;;;;;;17.50;16.08;;;1254.80;1075.20;;;;;;5089399;28;20023;-61
2023/07/05 07:26:43;;;;;;;18.33;16.58;;;1306.20;998.40;;;;;;5089096;28;20016;-62
2023/07/05 07:29:10;;;;;;;18.05;16.58;;;1331.20;998.40;;;;;;5089575;28;20024;-61
2023/07/05 07:31:36;;;;;;;18.92;17.52;;;1356.80;998.40;;;;;;5089102;28;20019;-61
2023/07/05 07:34:05;;;;;;;18.55;17.15;;;1306.20;998.40;;;;;;5089302;28;20378;-60
2023/07/05 07:36:32;;;;;;;17.70;16.40;;;1331.40;972.80;;;;;;5089319;28;20028;-61
2023/07/05 07:38:58;;;;;;;20.45;18.55;;;1306.30;972.80;;;;;;5088920;28;20074;-61
2023/07/05 07:41:26;;;;;;;18.55;17.15;;;1305.90;998.40;;;;;;5089255;28;20032;-61
2023/07/05 07:43:58;;;;;;;18.80;17.30;;;1305.90;998.40;;;;;;5089359;28;20047;-62
2023/07/05 07:46:26;;;;;;;20.38;18.30;;;1306.30;972.80;;;;;;5089241;28;20024;-61
2023/07/05 07:48:53;;;;;;;18.65;17.27;;;1305.70;998.40;;;;;;5089599;28;20481;-62
2023/07/05 07:51:22;;;;;;;20.17;18.63;;;1280.00;1024.00;;;;;;5089376;28;20054;-60
2023/07/05 07:53:50;;;;;;;19.48;18.08;;;1306.30;972.80;;;;;;5089232;28;20020;-61
2023/07/05 07:56:19;;;;;;;18.77;17.35;;;1331.90;972.80;;;;;;5075445;28;20043;-61
2023/07/05 07:58:48;;;;;;;19.13;17.33;;;1305.60;998.40;;;;;;5089261;28;20594;-63
2023/07/05 08:01:16;;;;;;;38.90;30.83;;;1228.80;1075.20;;;;;;5089179;28;20089;-59
2023/07/05 08:03:42;;;;;;;18.52;16.90;;;1152.60;1126.40;;;;;;5089465;28;20020;-61
2023/07/05 08:06:09;;;;;;;16.77;15.45;;;1229.00;1075.20;;;;;;5089110;28;20543;-63
2023/07/05 08:08:37;;;;;;;22.90;20.60;;;1229.70;1049.60;;;;;;5088949;28;20043;-63
2023/07/05 08:11:04;;;;;;;20.20;18.40;;;1254.60;1049.60;;;;;;5088696;28;20059;-61
2023/07/05 08:13:30;;;;;;;18.33;16.55;;;1254.50;1075.20;;;;;;5088441;28;20500;-62
2023/07/05 08:15:57;;;;;;;20.05;18.45;;;1229.40;1075.20;;;;;;5089156;28;20369;-59
2023/07/05 08:18:23;;;;;;;19.33;17.83;;;1203.90;1049.60;;;;;;5090030;28;20457;-59
2023/07/05 08:20:48;;;;;;;17.05;15.55;;;1152.50;1152.00;;;;;;5092235;28;20090;-60
2023/07/05 08:23:14;;;;;;;18.05;16.50;;;1101.40;1228.80;;;;;;5093136;28;20391;-60
2023/07/05 08:25:42;;;;;;;16.30;14.90;;;1050.50;1280.00;;;;;;5092492;28;20488;-61
2023/07/05 08:28:10;;;;;;;21.95;18.40;;;1024.70;1280.00;;;;;;5092250;28;20048;-57
2023/07/05 08:30:37;;;;;;;15.63;14.27;;;998.80;1331.20;;;;;;5092171;28;20471;-58
2023/07/05 08:33:03;;;;;;;16.00;14.60;;;973.60;1331.20;;;;;;5092600;28;20112;-60
2023/07/05 08:35:29;;;;;;;19.98;15.40;;;948.10;1356.80;;;;;;5091243;28;20059;-59
2023/07/05 08:37:55;;;;;;;16.35;14.65;;;947.30;1408.00;;;;;;5092075;28;20777;-61
2023/07/05 08:40:20;;;;;;;17.65;15.93;;;922.40;1433.60;;;;;;5092478;28;20044;-59
2023/07/05 08:43:03;;;;;;;17.65;14.70;;;922.40;1459.20;;;;;;5079439;28;20032;-61
2023/07/05 08:45:34;;;;;;;16.90;14.27;;;922.20;1484.80;;;;;;5092414;28;20024;-59
2023/07/05 08:48:03;;;;;;;16.38;14.73;;;922.20;1459.20;;;;;;5092291;28;20023;-60
2023/07/05 08:50:37;;;;;;;26.05;18.35;;;921.70;1510.40;;;;;;5092261;28;20107;-60
2023/07/05 08:53:10;;;;;;;15.27;13.70;;;921.70;1484.80;;;;;;5092081;28;20020;-59
2023/07/05 08:55:49;;;;;;;14.38;13.07;;;921.70;1484.80;;;;;;5078948;28;20670;-59
2023/07/05 08:58:41;;;;;;;15.48;13.15;;;921.80;1459.20;;;;;;5092553;28;20107;-59
2023/07/05 09:01:27;;;;;;;15.03;13.50;;;896.80;1459.20;;;;;;5078906;28;20039;-60
2023/07/05 09:03:52;;;;;;;14.73;13.20;;;896.70;1510.40;;;;;;5092214;28;20055;-59
2023/07/05 09:06:45;;;;;;;14.63;13.13;;;896.20;1587.20;;;;;;5083362;28;20056;-59
2023/07/05 09:09:37;;;;;;;16.60;14.95;;;896.20;1587.20;;;;;;5078193;28;20587;-60
2023/07/05 09:12:22;;;;;;;16.08;14.40;;;896.50;1561.60;;;;;;5009398;28;20389;-61
2023/07/05 09:15:06;;;;;;;14.45;13.00;;;896.90;1484.80;;;;;;5009482;28;20392;-61
2023/07/05 09:17:43;;;;;;;14.75;13.30;;;896.70;1561.60;;;;;;5009161;28;20034;-59
2023/07/05 09:20:30;;;;;;;15.18;13.70;;;896.30;1612.80;;;;;;5009580;28;20034;-59
2023/07/05 09:22:59;;;;;;;14.75;13.45;;;896.40;1561.60;;;;;;5009650;28;20504;-59
2023/07/05 09:25:30;;;;;;;19.65;14.60;;;845.60;1612.80;;;;;;4996924;28;20037;-58
2023/07/05 09:28:27;;;;;;;15.05;13.55;;;844.90;1664.00;;;;;;5009036;28;20030;-58
2023/07/05 09:30:52;;;;;;;14.93;13.48;;;844.90;1638.40;;;;;;5005491;28;20109;-58
2023/07/05 09:33:30;;;;;;;14.65;13.25;;;820.10;1638.40;;;;;;5009034;28;20391;-59
2023/07/05 09:36:09;;;;;;;14.52;13.23;;;844.80;1664.00;;;;;;5009528;28;20073;-58
2023/07/05 09:38:41;;;;;;;14.60;13.15;;;845.00;1638.40;;;;;;4997785;28;20046;-61
2023/07/05 09:41:20;;;;;;;16.07;14.50;;;820.10;1689.60;;;;;;5009491;28;20172;-60
2023/07/05 09:43:46;;;;;;;16.40;14.73;;;820.10;1664.00;;;;;;5009064;28;20159;-60
2023/07/05 09:46:26;;;;;;;14.40;12.85;;;819.80;1664.00;;;;;;5008940;28;20488;-61
2023/07/05 09:48:54;;;;;;;15.40;13.73;;;820.10;1664.00;;;;;;5040614;28;20040;-60
2023/07/05 09:51:22;;;;;;;16.35;14.20;;;819.70;1689.60;;;;;;5085393;28;20367;-59
2023/07/05 09:53:56;;;;;;;17.75;14.45;;;819.80;1689.60;;;;;;5071222;28;20481;-62
2023/07/05 09:56:27;;;;;;;15.60;13.93;;;820.00;1689.60;;;;;;5091001;28;20027;-61
2023/07/05 09:59:09;;;;;;;15.25;13.65;;;819.70;1689.60;;;;;;5090891;28;20374;-58
2023/07/05 10:01:39;;;;;;;16.48;12.98;;;820.10;1689.60;;;;;;5091206;28;20047;-60
2023/07/05 10:04:07;;;;;;;16.33;13.60;;;844.90;1689.60;;;;;;5091167;28;20036;-58
2023/07/05 10:06:33;;;;;;;15.35;13.43;;;819.70;1715.20;;;;;;5091028;28;20032;-60
2023/07/05 10:09:15;;;;;;;15.50;11.90;;;819.30;1740.80;;;;;;5090755;28;20016;-61
2023/07/05 10:11:56;;;;;;;13.25;11.13;;;819.20;1740.80;;;;;;5090894;28;20070;-61
2023/07/05 10:14:27;;;;;;;16.50;11.18;;;794.50;1740.80;;;;;;5090696;28;20489;-61
2023/07/05 10:17:03;;;;;;;12.35;11.15;;;794.20;1715.20;;;;;;5090347;28;20367;-61
2023/07/05 10:19:31;;;;;;;12.80;11.38;;;819.40;1766.40;;;;;;5090591;28;20039;-61
2023/07/05 10:22:07;;;;;;;11.68;10.48;;;819.70;1689.60;;;;;;5091068;28;20413;-60
2023/07/05 10:24:43;;;;;;;12.00;10.90;;;819.30;1689.60;;;;;;5090434;28;20489;-60
2023/07/05 10:27:30;;;;;;;17.75;12.15;;;819.30;1715.20;;;;;;5090277;28;20500;-61
2023/07/05 10:30:12;;;;;;;14.65;12.15;;;794.20;1766.40;;;;;;5090202;28;20084;-60
2023/07/05 10:32:58;;;;;;;12.38;11.07;;;794.30;1715.20;;;;;;5090831;28;20021;-60
2023/07/05 10:35:31;;;;;;;18.00;12.52;;;819.20;1740.80;;;;;;5090293;28;20458;-61
2023/07/05 10:37:58;;;;;;;14.27;12.85;;;794.40;1766.40;;;;;;5090158;28;20056;-60
2023/07/05 10:40:24;;;;;;;13.70;12.32;;;794.00;1792.00;;;;;;5090403;28;20048;-61
2023/07/05 10:42:53;;;;;;;12.55;10.88;;;794.40;1740.80;;;;;;5090233;28;20020;-61
2023/07/05 10:45:21;;;;;;;19.60;12.30;;;819.20;1792.00;;;;;;5090201;28;20107;-61
2023/07/05 10:47:52;;;;;;;14.90;12.88;;;794.20;1740.80;;;;;;5090022;28;20024;-61
2023/07/05 10:50:25;;;;;;;15.02;13.13;;;794.00;1766.40;;;;;;5090406;28;20028;-61
2023/07/05 10:53:12;;;;;;;14.20;11.85;;;793.70;1766.40;;;;;;5089969;28;20366;-61
2023/07/05 10:55:41;;;;;;;12.57;11.38;;;794.00;1766.40;;;;;;5090293;28;20035;-61
2023/07/05 10:58:15;;;;;;;16.27;12.23;;;794.50;1766.40;;;;;;5090244;28;20024;-60
2023/07/05 11:00:48;;;;;;;13.68;11.52;;;819.30;1715.20;;;;;;5089466;28;20044;-61
2023/07/05 11:03:31;;;;;;;13.60;11.48;;;794.40;1689.60;;;;;;5090039;28;20023;-61
2023/07/05 11:06:00;;;;;;;16.60;11.07;;;819.50;1689.60;;;;;;5089805;28;20024;-60
2023/07/05 11:08:35;;;;;;;15.57;12.07;;;819.20;1689.60;;;;;;5089910;28;20036;-61
2023/07/05 11:11:15;;;;;;;14.30;12.20;;;794.50;1740.80;;;;;;5065239;28;20039;-62
2023/07/05 11:13:43;;;;;;;15.85;12.65;;;794.30;1715.20;;;;;;5089147;28;20076;-61
2023/07/05 11:16:14;;;;;;;15.10;11.80;;;794.50;1689.60;;;;;;5089398;28;20470;-59
2023/07/05 11:18:40;;;;;;;15.50;13.85;;;794.50;1740.80;;;;;;5089569;28;20048;-61
2023/07/05 11:21:35;;;;;;;17.95;12.65;;;794.50;1740.80;;;;;;5089627;28;20481;-59
2023/07/05 11:24:00;;;;;;;14.52;13.02;;;794.50;1766.40;;;;;;5089447;28;20069;-59
2023/07/05 11:26:30;;;;;;;16.55;12.57;;;819.30;1766.40;;;;;;5089741;28;20028;-60
2023/07/05 11:28:56;;;;;;;15.15;12.75;;;794.30;1766.40;;;;;;5089906;28;20024;-59
2023/07/05 11:31:27;;;;;;;14.55;13.00;;;794.20;1792.00;;;;;;5089144;28;20548;-59
2023/07/05 11:34:21;;;;;;;13.23;11.93;;;794.40;1792.00;;;;;;5089439;28;20347;-60
2023/07/05 11:36:51;;;;;;;16.50;10.32;;;794.50;1792.00;;;;;;5089086;28;20099;-60
2023/07/05 11:39:51;;;;;;;13.30;11.25;;;819.30;1792.00;;;;;;5089075;28;20048;-59
2023/07/05 11:42:21;;;;;;;13.43;11.68;;;819.60;1843.20;;;;;;5089152;28;20156;-59
2023/07/05 11:45:10;;;;;;;13.25;11.95;;;794.50;1817.60;;;;;;5088896;28;20016;-59
2023/07/05 11:47:36;;;;;;;17.45;11.35;;;793.70;1843.20;;;;;;5088926;28;20492;-60
2023/07/05 11:50:07;;;;;;;13.57;12.23;;;793.80;1868.80;;;;;;5089097;28;20012;-60
2023/07/05 11:52:47;;;;;;;12.23;10.93;;;793.80;1843.20;;;;;;5088531;28;20482;-60
2023/07/05 11:55:23;;;;;;;14.50;12.27;;;794.30;1868.80;;;;;;5078806;28;20024;-61
2023/07/05 11:57:58;;;;;;;16.77;12.25;;;819.20;1843.20;;;;;;5082262;28;20020;-61
2023/07/05 12:00:27;;;;;;;14.80;12.30;;;794.50;1817.60;;;;;;5081562;28;20039;-59
2023/07/05 12:02:57;;;;;;;18.38;13.27;;;794.50;1843.20;;;;;;5088563;28;20028;-59
2023/07/05 12:05:29;;;;;;;14.35;12.85;;;794.50;1843.20;;;;;;5088723;28;20509;-59
2023/07/05 12:08:07;;;;;;;17.13;14.85;;;794.40;1817.60;;;;;;5089097;28;20427;-59
2023/07/05 12:10:34;;;;;;;16.27;14.27;;;794.10;1817.60;;;;;;5075779;28;20033;-60
2023/07/05 12:13:02;;;;;;;16.20;14.60;;;794.00;1843.20;;;;;;5088681;28;20020;-65
2023/07/05 12:15:29;;;;;;;15.57;13.90;;;794.00;1792.00;;;;;;5088876;28;20030;-67
2023/07/05 12:17:55;;;;;;;17.17;14.88;;;794.00;1843.20;;;;;;5082316;28;20024;-60
2023/07/05 12:20:37;;;;;;;19.63;14.52;;;793.80;1843.20;;;;;;5082039;28;20029;-68
2023/07/05 12:23:07;;;;;;;15.15;13.65;;;794.20;1868.80;;;;;;5088210;28;20505;-59
2023/07/05 12:25:34;;;;;;;14.77;13.25;;;794.30;1792.00;;;;;;5088580;28;20027;-59
2023/07/05 12:28:02;;;;;;;17.42;14.70;;;819.30;1817.60;;;;;;5088799;28;20025;-59
2023/07/05 12:30:28;;;;;;;17.23;14.85;;;819.60;1843.20;;;;;;5088225;28;20473;-61
2023/07/05 12:32:56;;;;;;;17.63;16.00;;;819.50;1792.00;;;;;;5088679;28;20029;-60
2023/07/05 12:35:27;;;;;;;22.38;15.48;;;794.50;1792.00;;;;;;5088627;28;20085;-60
2023/07/05 12:37:55;;;;;;;16.42;14.93;;;794.50;1817.60;;;;;;5087855;28;20072;-59
2023/07/05 12:40:32;;;;;;;16.38;14.68;;;794.20;1817.60;;;;;;5088975;28;20067;-59